Time;durP1;ratioP1;P1;durP2;ratioP2;P2;SDS_P1;SDS_P2;PMS_P1;PMS_P2;Temp;Humidity;BMP_temperature;BMP_pressure;BME280_temperature;BME280_humidity;BME280_pressure;Samples;Min_cycle;Max_cycle;Signal;HPM_P1;HPM_P2
2022/03/16 00:01:56;;;;;;;14.57;8.63;;;;;;;;;;5073290;27;20109;-78
2022/03/16 00:04:43;;;;;;;18.40;8.60;;;;;;;;;;5089751;27;20040;-78
2022/03/16 00:07:29;;;;;;;13.65;8.65;;;;;;;;;;5069143;28;20052;-78
2022/03/16 00:10:21;;;;;;;14.77;8.50;;;;;;;;;;5073799;27;20052;-79
2022/03/16 00:12:59;;;;;;;15.75;8.13;;;;;;;;;;5070180;28;20078;-79
2022/03/16 00:15:28;;;;;;;14.73;8.68;;;;;;;;;;5071965;28;20330;-79
2022/03/16 00:17:58;;;;;;;12.20;8.10;;;;;;;;;;5059533;28;20075;-79
2022/03/16 00:20:30;;;;;;;13.05;8.57;;;;;;;;;;5072438;28;20040;-79
2022/03/16 00:23:02;;;;;;;16.20;8.85;;;;;;;;;;5072210;28;20090;-79
2022/03/16 00:25:47;;;;;;;10.73;7.45;;;;;;;;;;5068939;28;20099;-79
2022/03/16 00:28:16;;;;;;;15.80;8.68;;;;;;;;;;5070895;28;20534;-79
2022/03/16 00:31:06;;;;;;;14.05;7.72;;;;;;;;;;5067236;28;20865;-78
2022/03/16 00:33:50;;;;;;;16.33;8.52;;;;;;;;;;5067975;28;20045;-79
2022/03/16 00:36:21;;;;;;;14.35;8.73;;;;;;;;;;5069524;28;20037;-79
2022/03/16 00:39:08;;;;;;;13.60;7.85;;;;;;;;;;5070932;28;20098;-79
2022/03/16 00:41:56;;;;;;;15.98;8.00;;;;;;;;;;5075369;28;20564;-79
2022/03/16 00:44:36;;;;;;;14.35;8.55;;;;;;;;;;5067237;28;20060;-79
2022/03/16 00:47:05;;;;;;;13.07;7.63;;;;;;;;;;5068039;28;20466;-79
2022/03/16 00:49:49;;;;;;;17.38;8.85;;;;;;;;;;5070149;28;20494;-79
2022/03/16 00:52:23;;;;;;;13.25;9.82;;;;;;;;;;5070207;28;20067;-78
2022/03/16 00:54:53;;;;;;;16.50;9.65;;;;;;;;;;5068237;28;20923;-79
2022/03/16 00:57:31;;;;;;;14.93;8.70;;;;;;;;;;5072714;28;20119;-79
2022/03/16 00:59:58;;;;;;;14.98;7.93;;;;;;;;;;5068933;28;20064;-79
2022/03/16 01:02:25;;;;;;;14.15;9.13;;;;;;;;;;5069962;28;20509;-79
2022/03/16 01:04:53;;;;;;;14.63;9.18;;;;;;;;;;5068823;28;20045;-79
2022/03/16 01:07:21;;;;;;;13.65;7.78;;;;;;;;;;5075644;28;20045;-79
2022/03/16 01:09:50;;;;;;;13.32;8.35;;;;;;;;;;5071818;28;20140;-79
2022/03/16 01:12:17;;;;;;;15.70;7.28;;;;;;;;;;5069100;28;20033;-79
2022/03/16 01:14:48;;;;;;;10.35;6.72;;;;;;;;;;5069694;28;20148;-79
2022/03/16 01:17:24;;;;;;;;;;;;;;;;;;;;;
2022/03/16 01:20:00;;;;;;;11.82;7.38;;;;;;;;;;5072731;28;42212;-79
2022/03/16 01:25:51;;;;;;;15.77;9.20;;;;;;;;;;5072990;28;20128;-78
2022/03/16 01:28:40;;;;;;;21.05;9.00;;;;;;;;;;5070686;28;20099;-79
2022/03/16 01:34:25;;;;;;;16.20;7.63;;;;;;;;;;5067883;28;20138;-79
2022/03/16 01:37:03;;;;;;;16.75;8.88;;;;;;;;;;5073251;28;20160;-79
2022/03/16 01:39:31;;;;;;;14.45;8.68;;;;;;;;;;5070901;28;20462;-79
2022/03/16 01:41:58;;;;;;;16.10;7.80;;;;;;;;;;5073583;28;20515;-79
2022/03/16 01:44:47;;;;;;;13.70;8.82;;;;;;;;;;5069827;28;20080;-80
2022/03/16 01:47:27;;;;;;;13.52;8.25;;;;;;;;;;5070924;28;20052;-79
2022/03/16 01:50:16;;;;;;;15.35;9.18;;;;;;;;;;5067373;28;20040;-79
2022/03/16 01:52:43;;;;;;;14.68;8.77;;;;;;;;;;5067236;28;20049;-79
2022/03/16 01:55:12;;;;;;;19.52;8.38;;;;;;;;;;5068741;28;20052;-79
2022/03/16 01:57:50;;;;;;;12.18;7.65;;;;;;;;;;5069753;28;20110;-78
2022/03/16 02:00:26;;;;;;;13.50;8.13;;;;;;;;;;5066147;28;20562;-79
2022/03/16 02:02:52;;;;;;;15.52;8.35;;;;;;;;;;5075367;28;21160;-79
2022/03/16 02:05:21;;;;;;;15.88;8.65;;;;;;;;;;5066634;28;20067;-79
2022/03/16 02:07:50;;;;;;;14.15;7.70;;;;;;;;;;5067369;28;20048;-79
2022/03/16 02:10:17;;;;;;;13.10;7.75;;;;;;;;;;5071750;28;20103;-79
2022/03/16 02:12:49;;;;;;;11.23;7.22;;;;;;;;;;5068542;28;20045;-79
2022/03/16 02:15:18;;;;;;;12.75;8.38;;;;;;;;;;5071242;28;20040;-79
2022/03/16 02:17:54;;;;;;;;;;;;;;;;;;;;;
2022/03/16 02:20:32;;;;;;;14.07;7.55;;;;;;;;;;5070795;28;40047;-79
2022/03/16 02:23:09;;;;;;;14.90;9.18;;;;;;;;;;5070270;28;20070;-79
2022/03/16 02:25:48;;;;;;;14.23;7.18;;;;;;;;;;5071931;28;20175;-79
2022/03/16 02:28:18;;;;;;;16.38;7.68;;;;;;;;;;5072169;28;20037;-79
2022/03/16 02:31:00;;;;;;;13.75;7.90;;;;;;;;;;5064730;28;20131;-79
2022/03/16 02:33:27;;;;;;;12.68;7.72;;;;;;;;;;5070425;28;20096;-79
2022/03/16 02:35:58;;;;;;;14.57;7.65;;;;;;;;;;5068542;28;20570;-79
2022/03/16 02:38:35;;;;;;;18.70;8.00;;;;;;;;;;5065872;28;20056;-79
2022/03/16 02:41:04;;;;;;;17.08;8.35;;;;;;;;;;5068424;28;20076;-78
2022/03/16 02:43:33;;;;;;;17.30;8.05;;;;;;;;;;5071089;28;20527;-79
2022/03/16 02:46:01;;;;;;;14.15;8.85;;;;;;;;;;5052877;28;20036;-79
2022/03/16 02:48:41;;;;;;;14.57;9.05;;;;;;;;;;5053542;28;20052;-78
2022/03/16 02:51:26;;;;;;;12.85;8.43;;;;;;;;;;5051344;28;20041;-78
2022/03/16 02:53:56;;;;;;;10.95;7.45;;;;;;;;;;5067431;28;20059;-78
2022/03/16 02:56:50;;;;;;;14.38;7.28;;;;;;;;;;5051420;28;21191;-78
2022/03/16 02:59:23;;;;;;;14.73;8.27;;;;;;;;;;5068751;28;20049;-78
2022/03/16 03:01:53;;;;;;;11.65;7.68;;;;;;;;;;5048751;28;20991;-79
2022/03/16 03:04:24;;;;;;;14.52;7.43;;;;;;;;;;5057035;28;20051;-78
2022/03/16 03:06:57;;;;;;;11.05;6.70;;;;;;;;;;5070695;28;20052;-78
2022/03/16 03:09:26;;;;;;;12.75;6.75;;;;;;;;;;5067267;28;20037;-78
2022/03/16 03:12:02;;;;;;;18.98;8.25;;;;;;;;;;5068761;28;20052;-78
2022/03/16 03:14:31;;;;;;;13.05;7.15;;;;;;;;;;5073388;27;20051;-78
2022/03/16 03:17:06;;;;;;;12.32;7.63;;;;;;;;;;5071381;28;20040;-79
2022/03/16 03:19:43;;;;;;;11.40;7.07;;;;;;;;;;5075841;27;20118;-78
2022/03/16 03:22:15;;;;;;;12.77;6.63;;;;;;;;;;5071773;27;20051;-79
2022/03/16 03:27:37;;;;;;;13.70;6.65;;;;;;;;;;5088089;27;19927;-78
2022/03/16 03:30:33;;;;;;;14.32;7.22;;;;;;;;;;5075324;28;20064;-78
2022/03/16 03:33:04;;;;;;;14.80;7.93;;;;;;;;;;5065183;27;20103;-78
2022/03/16 03:35:39;;;;;;;13.13;7.03;;;;;;;;;;5074412;28;20041;-78
2022/03/16 03:38:25;;;;;;;13.43;8.45;;;;;;;;;;5082973;27;20934;-78
2022/03/16 03:40:59;;;;;;;16.25;7.70;;;;;;;;;;5064061;28;20072;-78
2022/03/16 03:43:31;;;;;;;9.65;6.40;;;;;;;;;;5068996;27;20047;-78
2022/03/16 03:45:59;;;;;;;;;;;;;;;;;;5075381;27;20044;-78
2022/03/16 03:48:25;;;;;;;12.73;6.18;;;;;;;;;;5091619;27;19924;-78
2022/03/16 03:50:58;;;;;;;17.40;7.57;;;;;;;;;;5071223;27;20051;-78
2022/03/16 03:53:31;;;;;;;14.48;7.88;;;;;;;;;;5066891;27;20088;-78
2022/03/16 03:55:57;;;;;;;15.05;7.85;;;;;;;;;;5093321;27;20047;-78
2022/03/16 03:58:23;;;;;;;11.90;6.85;;;;;;;;;;5067882;27;20902;-78
2022/03/16 04:01:10;;;;;;;14.02;7.85;;;;;;;;;;5088869;27;20044;-78
2022/03/16 04:03:36;;;;;;;13.65;7.90;;;;;;;;;;5071635;28;20040;-78
2022/03/16 04:06:16;;;;;;;12.93;7.35;;;;;;;;;;5074678;27;20075;-78
2022/03/16 04:11:37;;;;;;;14.38;9.07;;;;;;;;;;5091220;27;20052;-78
2022/03/16 04:14:03;;;;;;;15.75;8.35;;;;;;;;;;5088300;27;22244;-78
2022/03/16 04:16:32;;;;;;;14.18;7.25;;;;;;;;;;5088430;27;20087;-77
2022/03/16 04:19:24;;;;;;;11.40;7.35;;;;;;;;;;5076671;27;20056;-78
2022/03/16 04:22:06;;;;;;;14.20;7.78;;;;;;;;;;5076773;28;20049;-79
2022/03/16 04:24:53;;;;;;;15.20;8.23;;;;;;;;;;5092938;27;20036;-78
2022/03/16 04:27:30;;;;;;;16.52;7.70;;;;;;;;;;5072242;28;20059;-78
2022/03/16 04:30:13;;;;;;;15.93;7.80;;;;;;;;;;5091984;27;20036;-78
2022/03/16 04:35:40;;;;;;;10.27;6.20;;;;;;;;;;5073048;27;20542;-78
2022/03/16 04:38:08;;;;;;;16.02;7.75;;;;;;;;;;5077011;28;21076;-78
2022/03/16 04:40:39;;;;;;;10.13;7.20;;;;;;;;;;5095945;27;20039;-78
2022/03/16 04:43:06;;;;;;;11.52;7.40;;;;;;;;;;5073773;28;21049;-78
2022/03/16 04:45:46;;;;;;;12.38;7.20;;;;;;;;;;5082107;28;20067;-78
2022/03/16 04:48:14;;;;;;;12.77;7.50;;;;;;;;;;5076991;28;20501;-78
2022/03/16 04:50:53;;;;;;;13.45;7.93;;;;;;;;;;5095562;27;20127;-78
2022/03/16 04:53:28;;;;;;;14.82;7.40;;;;;;;;;;5095888;27;20059;-78
2022/03/16 04:55:59;;;;;;;11.15;6.85;;;;;;;;;;5076994;27;20036;-79
2022/03/16 04:58:28;;;;;;;9.35;5.90;;;;;;;;;;5077053;27;20083;-77
2022/03/16 05:01:09;;;;;;;14.82;7.28;;;;;;;;;;5076592;27;20048;-78
2022/03/16 05:03:45;;;;;;;14.38;7.53;;;;;;;;;;5079365;28;20035;-78
2022/03/16 05:06:29;;;;;;;13.07;7.13;;;;;;;;;;5074517;28;20043;-78
2022/03/16 05:09:07;;;;;;;14.68;6.70;;;;;;;;;;5076137;27;20037;-78
2022/03/16 05:11:35;;;;;;;12.38;5.97;;;;;;;;;;5073844;27;20040;-78
2022/03/16 05:14:04;;;;;;;14.88;7.00;;;;;;;;;;5075284;27;20044;-78
2022/03/16 05:16:33;;;;;;;10.90;5.57;;;;;;;;;;5079147;27;20045;-79
2022/03/16 05:19:17;;;;;;;14.07;6.85;;;;;;;;;;5077043;27;20051;-78
2022/03/16 05:21:43;;;;;;;15.38;7.03;;;;;;;;;;5078512;28;20044;-78
2022/03/16 05:24:09;;;;;;;12.95;7.25;;;;;;;;;;5074942;27;20051;-79
2022/03/16 05:26:38;;;;;;;14.25;7.25;;;;;;;;;;5080728;28;20077;-79
2022/03/16 05:29:14;;;;;;;16.92;7.35;;;;;;;;;;5081055;28;20048;-79
2022/03/16 05:31:41;;;;;;;12.27;7.53;;;;;;;;;;5078089;28;20036;-79
2022/03/16 05:34:09;;;;;;;15.40;7.72;;;;;;;;;;5079012;28;20197;-78
2022/03/16 05:36:44;;;;;;;11.50;6.70;;;;;;;;;;5080500;27;20127;-79
2022/03/16 05:39:15;;;;;;;11.32;7.57;;;;;;;;;;5034782;28;20053;-78
2022/03/16 05:41:48;;;;;;;13.75;7.78;;;;;;;;;;5034547;28;20054;-78
2022/03/16 05:44:35;;;;;;;11.70;6.82;;;;;;;;;;5014214;28;20042;-79
2022/03/16 05:47:14;;;;;;;16.60;7.47;;;;;;;;;;5012015;28;20065;-78
2022/03/16 05:49:45;;;;;;;12.15;6.80;;;;;;;;;;5015571;28;20045;-79
2022/03/16 05:52:21;;;;;;;13.45;7.60;;;;;;;;;;5033130;28;20045;-79
2022/03/16 05:55:02;;;;;;;12.15;7.55;;;;;;;;;;5009452;28;20135;-79
2022/03/16 05:57:39;;;;;;;11.85;7.43;;;;;;;;;;5027308;28;20056;-78
2022/03/16 06:00:14;;;;;;;14.05;7.95;;;;;;;;;;5012629;28;20058;-78
2022/03/16 06:02:52;;;;;;;12.30;6.40;;;;;;;;;;5017378;28;20049;-78
2022/03/16 06:05:20;;;;;;;15.23;8.02;;;;;;;;;;5094796;27;20048;-79
2022/03/16 06:08:01;;;;;;;16.02;7.93;;;;;;;;;;5074409;28;20048;-81
2022/03/16 06:10:30;;;;;;;10.38;6.70;;;;;;;;;;5091958;27;20458;-78
2022/03/16 06:12:57;;;;;;;14.80;7.40;;;;;;;;;;5076539;28;20127;-79
2022/03/16 06:15:27;;;;;;;14.85;7.22;;;;;;;;;;5072032;28;20079;-76
2022/03/16 06:17:55;;;;;;;16.27;7.32;;;;;;;;;;5063289;28;20132;-77
2022/03/16 06:20:28;;;;;;;12.80;7.00;;;;;;;;;;5072074;28;20040;-81
2022/03/16 06:22:58;;;;;;;12.93;7.57;;;;;;;;;;5072178;28;20094;-78
2022/03/16 06:25:27;;;;;;;12.40;6.38;;;;;;;;;;5071012;28;20054;-80
2022/03/16 06:27:53;;;;;;;13.57;7.57;;;;;;;;;;5073059;28;21840;-81
2022/03/16 06:30:22;;;;;;;14.80;7.30;;;;;;;;;;5072289;28;20123;-79
2022/03/16 06:32:51;;;;;;;13.23;7.72;;;;;;;;;;5068170;28;20033;-80
2022/03/16 06:35:17;;;;;;;11.98;6.78;;;;;;;;;;5072726;28;20403;-84
2022/03/16 06:37:44;;;;;;;19.70;8.60;;;;;;;;;;5068649;28;20048;-81
2022/03/16 06:40:11;;;;;;;15.93;8.13;;;;;;;;;;5075417;28;20116;-80
2022/03/16 06:42:48;;;;;;;13.18;7.28;;;;;;;;;;5071579;28;20044;-80
2022/03/16 06:45:15;;;;;;;16.92;7.63;;;;;;;;;;5073028;28;20562;-80
2022/03/16 06:47:41;;;;;;;12.73;7.05;;;;;;;;;;5073648;28;20032;-80
2022/03/16 06:50:10;;;;;;;11.75;6.85;;;;;;;;;;5066987;28;20041;-80
2022/03/16 06:52:40;;;;;;;12.93;7.95;;;;;;;;;;5073116;28;20056;-79
2022/03/16 06:55:17;;;;;;;13.98;7.90;;;;;;;;;;5072802;28;20045;-87
2022/03/16 06:57:52;;;;;;;17.75;8.30;;;;;;;;;;5072994;28;20583;-86
2022/03/16 07:00:19;;;;;;;16.00;7.68;;;;;;;;;;5066774;28;20045;-80
2022/03/16 07:02:55;;;;;;;11.90;8.05;;;;;;;;;;5069499;28;20044;-79
2022/03/16 07:05:25;;;;;;;15.80;7.43;;;;;;;;;;5071799;28;20207;-80
2022/03/16 07:07:51;;;;;;;11.38;7.10;;;;;;;;;;5073899;28;20041;-80
2022/03/16 07:10:37;;;;;;;15.55;7.93;;;;;;;;;;5070691;28;20048;-79
2022/03/16 07:13:04;;;;;;;11.40;6.75;;;;;;;;;;5066485;28;20080;-79
2022/03/16 07:15:33;;;;;;;14.25;7.07;;;;;;;;;;5075125;27;20661;-79
2022/03/16 07:18:05;;;;;;;16.40;8.02;;;;;;;;;;5072532;28;20466;-80
2022/03/16 07:20:32;;;;;;;13.63;7.68;;;;;;;;;;5077806;27;20091;-79
2022/03/16 07:23:12;;;;;;;12.70;7.75;;;;;;;;;;5075429;27;20055;-79
2022/03/16 07:25:48;;;;;;;16.17;8.13;;;;;;;;;;5077206;27;20156;-79
2022/03/16 07:28:17;;;;;;;12.85;7.00;;;;;;;;;;5074452;27;20549;-80
2022/03/16 07:30:49;;;;;;;18.75;8.13;;;;;;;;;;5071079;28;20048;-79
2022/03/16 07:33:31;;;;;;;;;;;;;;;;;;;;;
2022/03/16 07:36:01;;;;;;;16.52;7.38;;;;;;;;;;5089244;27;42198;-80
2022/03/16 07:38:37;;;;;;;14.38;6.32;;;;;;;;;;5069354;27;20044;-80
2022/03/16 07:41:11;;;;;;;13.32;7.13;;;;;;;;;;5092807;27;20051;-79
2022/03/16 07:43:57;;;;;;;14.02;7.65;;;;;;;;;;5065239;28;20044;-81
2022/03/16 07:46:53;;;;;;;10.65;7.05;;;;;;;;;;5072107;28;20044;-79
2022/03/16 07:49:29;;;;;;;14.23;7.50;;;;;;;;;;5068391;27;20060;-80
2022/03/16 07:52:21;;;;;;;12.63;7.28;;;;;;;;;;5071403;28;20931;-79
2022/03/16 07:54:50;;;;;;;14.82;7.63;;;;;;;;;;5088899;27;20123;-79
2022/03/16 07:57:40;;;;;;;14.35;6.57;;;;;;;;;;5070643;27;20063;-79
2022/03/16 08:00:10;;;;;;;13.40;7.07;;;;;;;;;;5075984;28;20048;-79
2022/03/16 08:02:43;;;;;;;8.45;5.88;;;;;;;;;;5093956;27;20078;-79
2022/03/16 08:05:17;;;;;;;13.40;7.13;;;;;;;;;;5080107;27;20596;-79
2022/03/16 08:08:01;;;;;;;11.05;6.75;;;;;;;;;;5072505;28;20582;-79
2022/03/16 08:11:05;;;;;;;12.38;6.15;;;;;;;;;;5072943;27;20104;-79
2022/03/16 08:13:35;;;;;;;9.80;6.07;;;;;;;;;;5076260;28;20049;-80
2022/03/16 08:16:04;;;;;;;13.90;7.20;;;;;;;;;;5091496;27;20464;-79
2022/03/16 08:22:01;;;;;;;11.35;5.85;;;;;;;;;;5103679;27;20089;-79
2022/03/16 08:24:39;;;;;;;8.52;5.50;;;;;;;;;;5102612;27;20586;-78
2022/03/16 08:27:09;;;;;;;11.90;6.28;;;;;;;;;;5085107;27;20036;-79
2022/03/16 08:29:38;;;;;;;11.07;6.28;;;;;;;;;;5077377;27;20098;-80
2022/03/16 08:32:11;;;;;;;11.20;6.35;;;;;;;;;;5078066;27;20044;-79
2022/03/16 08:34:46;;;;;;;11.77;6.68;;;;;;;;;;5098705;27;20044;-80
2022/03/16 08:37:17;;;;;;;15.57;6.45;;;;;;;;;;5098734;27;20105;-80
2022/03/16 08:39:49;;;;;;;11.03;6.13;;;;;;;;;;5074662;28;20582;-79
2022/03/16 08:42:25;;;;;;;9.35;6.10;;;;;;;;;;5076255;28;20559;-80
2022/03/16 08:44:57;;;;;;;12.50;6.55;;;;;;;;;;5059726;28;20143;-80
2022/03/16 08:47:31;;;;;;;;;;;;;;;;;;5061819;28;20044;-80
2022/03/16 08:50:04;;;;;;;9.55;6.05;;;;;;;;;;5081248;28;19920;-79
2022/03/16 08:52:44;;;;;;;9.48;6.30;;;;;;;;;;5056351;28;20069;-80
2022/03/16 08:55:21;;;;;;;13.02;6.78;;;;;;;;;;5074808;28;20055;-79
2022/03/16 08:57:52;;;;;;;10.45;5.85;;;;;;;;;;5059753;28;20044;-80
2022/03/16 09:00:50;;;;;;;13.90;8.38;;;;;;;;;;5069239;28;20132;-80
2022/03/16 09:03:26;;;;;;;11.85;6.45;;;;;;;;;;5072633;28;20646;-80
2022/03/16 09:06:02;;;;;;;8.52;5.95;;;;;;;;;;5075113;28;20041;-80
2022/03/16 09:09:00;;;;;;;9.70;6.38;;;;;;;;;;5098974;27;20036;-80
2022/03/16 09:11:48;;;;;;;11.02;6.10;;;;;;;;;;5073573;27;20037;-80
2022/03/16 09:14:34;;;;;;;11.07;6.28;;;;;;;;;;5072311;28;20408;-80
2022/03/16 09:17:03;;;;;;;10.25;5.72;;;;;;;;;;5078223;28;20045;-80
2022/03/16 09:19:31;;;;;;;13.73;6.63;;;;;;;;;;5082708;28;20595;-80
2022/03/16 09:22:04;;;;;;;12.30;7.03;;;;;;;;;;5077266;27;20134;-80
2022/03/16 09:24:43;;;;;;;10.50;6.03;;;;;;;;;;5094941;27;20063;-80
2022/03/16 09:27:31;;;;;;;9.45;5.47;;;;;;;;;;5082507;28;20106;-80
2022/03/16 09:30:24;;;;;;;13.50;6.43;;;;;;;;;;5078039;28;20139;-79
2022/03/16 09:32:58;;;;;;;11.73;6.03;;;;;;;;;;5075977;27;20055;-79
2022/03/16 09:35:31;;;;;;;12.02;6.40;;;;;;;;;;5080811;27;20064;-79
2022/03/16 09:38:26;;;;;;;10.98;6.03;;;;;;;;;;5094880;27;20051;-79
2022/03/16 09:41:10;;;;;;;;;;;;;;;;;;;;;
2022/03/16 09:43:45;;;;;;;13.85;6.20;;;;;;;;;;5089321;27;43492;-79
2022/03/16 09:46:31;;;;;;;12.75;6.88;;;;;;;;;;5077222;28;20068;-79
2022/03/16 09:49:06;;;;;;;12.27;6.45;;;;;;;;;;5098733;27;20044;-79
2022/03/16 09:51:36;;;;;;;12.60;7.22;;;;;;;;;;5068352;27;20041;-79
2022/03/16 09:54:03;;;;;;;11.77;7.05;;;;;;;;;;5092316;27;20089;-79
2022/03/16 09:56:36;;;;;;;9.18;6.65;;;;;;;;;;5073200;27;20053;-79
2022/03/16 09:59:04;;;;;;;15.85;6.35;;;;;;;;;;5079146;27;20052;-79
2022/03/16 10:01:43;;;;;;;12.73;6.78;;;;;;;;;;5076228;27;20675;-80
2022/03/16 10:04:15;;;;;;;13.90;7.20;;;;;;;;;;5074815;28;20044;-80
2022/03/16 10:06:42;;;;;;;12.30;5.65;;;;;;;;;;5070064;28;20044;-79
2022/03/16 10:15:14;;;;;;;10.88;6.22;;;;;;;;;;5102493;27;20525;-79
2022/03/16 10:17:59;;;;;;;13.82;6.63;;;;;;;;;;5091376;27;20119;-80
2022/03/16 10:23:39;;;;;;;8.57;6.28;;;;;;;;;;5094861;27;20076;-79
2022/03/16 10:26:08;;;;;;;12.55;7.18;;;;;;;;;;5074275;27;20043;-79
2022/03/16 10:28:51;;;;;;;10.35;6.50;;;;;;;;;;5078442;27;20461;-80
2022/03/16 10:31:22;;;;;;;11.57;6.13;;;;;;;;;;5070794;28;20067;-79
2022/03/16 10:33:50;;;;;;;14.48;6.47;;;;;;;;;;5095160;27;20045;-79
2022/03/16 10:48:30;;;;;;;10.43;5.70;;;;;;;;;;5087252;27;20095;-80
2022/03/16 10:51:11;;;;;;;12.30;6.13;;;;;;;;;;5072336;27;20051;-80
2022/03/16 10:53:43;;;;;;;11.82;5.55;;;;;;;;;;5094403;27;20040;-79
2022/03/16 10:56:13;;;;;;;18.85;6.32;;;;;;;;;;5074223;28;21277;-79
2022/03/16 10:58:53;;;;;;;13.90;6.75;;;;;;;;;;5087438;28;20071;-79
2022/03/16 11:01:29;;;;;;;13.52;6.10;;;;;;;;;;5096470;27;20036;-79
2022/03/16 11:04:24;;;;;;;13.68;6.72;;;;;;;;;;5089126;27;20059;-80
2022/03/16 11:07:03;;;;;;;12.55;6.38;;;;;;;;;;5090929;28;20096;-80
2022/03/16 11:09:39;;;;;;;;;;;;;;;;;;;;;
2022/03/16 11:15:12;;;;;;;9.27;5.10;;;;;;;;;;5108892;27;20036;-80
2022/03/16 11:17:51;;;;;;;9.35;6.15;;;;;;;;;;5089076;28;20617;-80
2022/03/16 11:20:25;;;;;;;8.90;5.60;;;;;;;;;;5083299;28;20052;-80
2022/03/16 11:26:21;;;;;;;10.45;5.57;;;;;;;;;;5091269;28;20049;-80
2022/03/16 11:29:06;;;;;;;10.68;6.22;;;;;;;;;;5070980;28;20503;-80
2022/03/16 11:31:55;;;;;;;12.57;4.95;;;;;;;;;;5088370;27;20557;-80
2022/03/16 11:34:26;;;;;;;11.20;6.35;;;;;;;;;;5093513;27;20119;-80
2022/03/16 11:37:12;;;;;;;7.80;4.63;;;;;;;;;;5078230;27;20054;-79
2022/03/16 11:39:50;;;;;;;9.38;4.38;;;;;;;;;;5079897;28;20614;-80
2022/03/16 11:42:29;;;;;;;8.90;5.13;;;;;;;;;;5094593;27;20216;-80
2022/03/16 11:45:26;;;;;;;8.98;5.53;;;;;;;;;;5094090;27;20554;-80
2022/03/16 11:47:59;;;;;;;10.70;4.68;;;;;;;;;;5070181;28;20567;-80
2022/03/16 11:50:37;;;;;;;8.07;5.25;;;;;;;;;;5079981;28;20069;-80
2022/03/16 11:53:17;;;;;;;7.45;5.10;;;;;;;;;;5078777;27;20049;-80
2022/03/16 11:55:55;;;;;;;9.02;4.72;;;;;;;;;;5072387;27;20048;-80
2022/03/16 11:58:37;;;;;;;;;;;;;;;;;;;;;
2022/03/16 12:01:12;;;;;;;;;;;;;;;;;;5090685;28;44448;-81
2022/03/16 12:07:22;;;;;;;11.55;4.78;;;;;;;;;;5087516;28;20048;-80
2022/03/16 12:10:05;;;;;;;9.43;5.35;;;;;;;;;;5005994;28;20894;-80
2022/03/16 12:15:53;;;;;;;9.68;5.53;;;;;;;;;;5096142;27;20070;-81
2022/03/16 12:18:25;;;;;;;7.45;4.35;;;;;;;;;;5069143;28;20045;-80
2022/03/16 12:20:53;;;;;;;;;;;;;;;;;;5052478;28;20049;-80
2022/03/16 12:23:42;;;;;;;8.95;4.53;;;;;;;;;;5051989;28;20110;-80
2022/03/16 12:26:11;;;;;;;11.68;4.80;;;;;;;;;;5045007;28;20271;-80
2022/03/16 12:29:01;;;;;;;5.55;3.72;;;;;;;;;;5053646;28;20048;-80
2022/03/16 12:31:30;;;;;;;8.30;5.55;;;;;;;;;;5046262;28;20057;-80
2022/03/16 12:34:07;;;;;;;6.63;4.03;;;;;;;;;;5044853;28;20045;-80
2022/03/16 12:36:33;;;;;;;7.72;4.97;;;;;;;;;;5051998;28;20080;-80
2022/03/16 12:39:13;;;;;;;9.98;4.07;;;;;;;;;;5050804;28;20041;-80
2022/03/16 12:44:41;;;;;;;;;;;;;;;;;;;;;
2022/03/16 12:47:13;;;;;;;9.90;4.75;;;;;;;;;;5052271;28;39771;-80
2022/03/16 12:49:44;;;;;;;13.20;5.38;;;;;;;;;;5046704;28;20033;-80
2022/03/16 12:52:18;;;;;;;6.43;4.95;;;;;;;;;;5048494;28;20049;-80
2022/03/16 12:54:54;;;;;;;8.40;5.05;;;;;;;;;;5048323;28;20048;-80
2022/03/16 12:57:25;;;;;;;8.15;6.28;;;;;;;;;;5053450;28;20045;-79
2022/03/16 13:02:52;;;;;;;10.63;5.45;;;;;;;;;;5051107;28;20061;-80
2022/03/16 13:05:36;;;;;;;8.43;5.03;;;;;;;;;;5059130;28;20037;-79
2022/03/16 13:08:08;;;;;;;11.50;5.28;;;;;;;;;;5050762;28;20049;-80
2022/03/16 13:13:37;;;;;;;11.35;5.18;;;;;;;;;;5057131;28;20089;-80
2022/03/16 13:19:18;;;;;;;9.57;4.47;;;;;;;;;;5076248;28;20207;-80
2022/03/16 13:22:06;;;;;;;12.02;5.00;;;;;;;;;;5071905;28;20045;-80
2022/03/16 13:24:49;;;;;;;8.30;5.43;;;;;;;;;;5068836;28;20048;-80
2022/03/16 13:27:22;;;;;;;9.10;4.40;;;;;;;;;;5068568;28;20252;-80
2022/03/16 13:29:59;;;;;;;12.25;5.13;;;;;;;;;;5074566;28;20071;-80
2022/03/16 13:32:41;;;;;;;9.75;4.97;;;;;;;;;;5068463;28;20049;-80
2022/03/16 13:35:35;;;;;;;8.88;4.40;;;;;;;;;;5074007;28;20052;-80
2022/03/16 13:38:04;;;;;;;12.05;5.10;;;;;;;;;;5072749;28;20991;-80
2022/03/16 13:40:39;;;;;;;9.98;4.68;;;;;;;;;;5072789;28;20550;-80
2022/03/16 13:43:10;;;;;;;8.88;4.55;;;;;;;;;;5071798;28;20048;-80
2022/03/16 13:45:52;;;;;;;13.15;6.55;;;;;;;;;;5068033;28;20055;-80
2022/03/16 13:48:23;;;;;;;8.43;4.68;;;;;;;;;;5072487;28;20186;-80
2022/03/16 13:51:11;;;;;;;9.93;4.40;;;;;;;;;;5077651;28;20541;-80
2022/03/16 13:54:04;;;;;;;8.07;4.68;;;;;;;;;;5076363;28;20041;-80
2022/03/16 13:57:01;;;;;;;12.30;5.45;;;;;;;;;;5067745;28;20063;-80
2022/03/16 13:59:38;;;;;;;11.20;5.25;;;;;;;;;;5051424;28;20051;-80
2022/03/16 14:02:43;;;;;;;11.25;4.95;;;;;;;;;;5074663;28;20052;-80
2022/03/16 14:05:23;;;;;;;9.05;4.55;;;;;;;;;;5059892;28;20045;-80
2022/03/16 14:08:19;;;;;;;7.68;5.15;;;;;;;;;;5072820;28;20113;-80
2022/03/16 14:10:57;;;;;;;15.23;5.13;;;;;;;;;;5069852;28;20053;-80
2022/03/16 14:13:45;;;;;;;9.20;5.93;;;;;;;;;;5073271;28;20041;-80
2022/03/16 14:16:15;;;;;;;9.32;4.43;;;;;;;;;;5068282;28;20107;-80
2022/03/16 14:19:04;;;;;;;10.57;5.50;;;;;;;;;;5068642;28;20518;-80
2022/03/16 14:21:38;;;;;;;7.93;3.95;;;;;;;;;;5029772;28;20056;-80
2022/03/16 14:24:09;;;;;;;9.15;5.68;;;;;;;;;;5070834;28;20293;-80
2022/03/16 14:26:36;;;;;;;12.95;5.43;;;;;;;;;;5066663;28;21560;-80
2022/03/16 14:29:02;;;;;;;15.38;5.25;;;;;;;;;;5070776;28;20961;-80
2022/03/16 14:31:28;;;;;;;12.25;5.35;;;;;;;;;;5073478;28;20040;-80
2022/03/16 14:33:54;;;;;;;11.38;4.82;;;;;;;;;;5075254;28;20036;-80
2022/03/16 14:36:20;;;;;;;14.10;6.03;;;;;;;;;;5074194;28;20040;-80
2022/03/16 14:38:46;;;;;;;10.10;5.75;;;;;;;;;;5067043;28;20511;-80
2022/03/16 14:41:13;;;;;;;8.68;5.50;;;;;;;;;;5072247;28;20052;-80
2022/03/16 14:43:39;;;;;;;14.00;5.60;;;;;;;;;;5070364;28;20466;-80
2022/03/16 14:46:05;;;;;;;11.13;5.65;;;;;;;;;;5066386;28;20052;-80
2022/03/16 14:48:31;;;;;;;10.90;5.68;;;;;;;;;;5070133;28;20044;-80
2022/03/16 14:50:57;;;;;;;12.05;6.00;;;;;;;;;;5070914;28;20045;-80
2022/03/16 14:53:23;;;;;;;10.77;6.07;;;;;;;;;;5072050;28;20102;-80
2022/03/16 14:55:49;;;;;;;12.75;6.72;;;;;;;;;;5071493;28;20052;-80
2022/03/16 14:58:15;;;;;;;8.52;4.72;;;;;;;;;;5066355;28;20078;-80
2022/03/16 15:00:41;;;;;;;11.25;5.07;;;;;;;;;;5069335;28;20135;-80
2022/03/16 15:03:08;;;;;;;15.13;5.93;;;;;;;;;;5070309;28;20131;-80
2022/03/16 15:05:34;;;;;;;13.18;5.38;;;;;;;;;;5070811;28;20044;-80
2022/03/16 15:08:00;;;;;;;9.85;5.18;;;;;;;;;;5078281;28;20442;-80
2022/03/16 15:10:26;;;;;;;16.63;5.75;;;;;;;;;;5073471;28;20558;-79
2022/03/16 15:12:53;;;;;;;9.95;5.45;;;;;;;;;;5069184;28;20920;-80
2022/03/16 15:15:19;;;;;;;9.43;5.35;;;;;;;;;;5072855;28;20074;-79
2022/03/16 15:17:45;;;;;;;11.43;5.68;;;;;;;;;;5088113;27;20305;-79
2022/03/16 15:20:12;;;;;;;11.57;5.65;;;;;;;;;;5079039;27;20070;-80
2022/03/16 15:22:39;;;;;;;10.18;5.90;;;;;;;;;;5089693;27;20603;-80
2022/03/16 15:25:05;;;;;;;10.50;5.28;;;;;;;;;;5088863;27;20486;-80
2022/03/16 15:27:32;;;;;;;11.88;6.80;;;;;;;;;;5077906;27;20040;-81
2022/03/16 15:29:58;;;;;;;15.95;6.15;;;;;;;;;;5076557;27;20033;-80
2022/03/16 15:32:26;;;;;;;14.30;6.63;;;;;;;;;;5071430;27;20041;-79
2022/03/16 15:34:52;;;;;;;15.00;6.50;;;;;;;;;;5091208;27;20043;-79
2022/03/16 15:37:19;;;;;;;12.15;6.43;;;;;;;;;;5079263;27;20068;-80
2022/03/16 15:42:38;;;;;;;12.48;6.63;;;;;;;;;;5094294;27;20056;-80
2022/03/16 15:45:05;;;;;;;12.93;7.20;;;;;;;;;;5085095;27;20044;-80
2022/03/16 15:47:31;;;;;;;7.97;4.78;;;;;;;;;;5070971;27;20063;-80
2022/03/16 15:49:57;;;;;;;13.98;6.35;;;;;;;;;;5071027;27;20036;-80
2022/03/16 15:52:23;;;;;;;9.60;6.28;;;;;;;;;;5085100;27;20455;-79
2022/03/16 15:54:51;;;;;;;12.73;5.68;;;;;;;;;;5075263;27;20081;-80
2022/03/16 15:57:17;;;;;;;12.35;5.72;;;;;;;;;;5090854;27;20120;-80
2022/03/16 15:59:43;;;;;;;12.35;5.85;;;;;;;;;;5073151;27;20131;-80
2022/03/16 16:02:12;;;;;;;10.35;6.05;;;;;;;;;;5087200;27;20482;-80
2022/03/16 16:04:38;;;;;;;10.73;6.28;;;;;;;;;;5091080;27;20044;-80
2022/03/16 16:07:04;;;;;;;12.30;5.15;;;;;;;;;;5072470;27;20055;-80
2022/03/16 16:09:30;;;;;;;11.43;5.28;;;;;;;;;;5072910;27;20545;-80
2022/03/16 16:11:59;;;;;;;10.93;5.03;;;;;;;;;;5093372;27;20593;-79
2022/03/16 16:14:25;;;;;;;11.55;6.70;;;;;;;;;;5072847;27;20043;-80
2022/03/16 16:16:52;;;;;;;11.68;5.95;;;;;;;;;;5068349;28;20064;-80
2022/03/16 16:19:18;;;;;;;10.30;6.50;;;;;;;;;;5070536;28;20113;-80
2022/03/16 16:21:48;;;;;;;15.48;7.68;;;;;;;;;;5071869;28;20041;-79
2022/03/16 16:24:17;;;;;;;14.98;6.03;;;;;;;;;;5074451;28;20037;-80
2022/03/16 16:26:43;;;;;;;14.30;5.60;;;;;;;;;;5071738;28;20049;-80
2022/03/16 16:29:26;;;;;;;11.63;5.93;;;;;;;;;;5077720;28;20359;-87
2022/03/16 16:32:11;;;;;;;;;;;;;;;;;;;;;